createdAt,value
2023-04-08T00:00:31.978Z,88.00
2023-04-08T00:08:37.434Z,88.50
2023-04-08T00:16:45.805Z,89.40
2023-04-08T00:24:51.388Z,88.50
2023-04-08T00:32:59.517Z,88.60
2023-04-08T00:41:05.077Z,87.80
2023-04-08T00:49:13.222Z,88.60
2023-04-08T00:57:18.770Z,88.20
2023-04-08T01:05:32.056Z,87.80
2023-04-08T01:13:42.805Z,87.20
2023-04-08T01:21:51.559Z,86.80
2023-04-08T01:30:01.843Z,86.20
2023-04-08T01:38:11.982Z,85.60
2023-04-08T01:46:20.667Z,85.90
2023-04-08T01:54:26.183Z,87.20
2023-04-08T02:02:36.522Z,86.60
2023-04-08T02:10:42.289Z,86.20
2023-04-08T02:18:57.976Z,86.10
2023-04-08T02:27:05.506Z,85.80
2023-04-08T02:35:15.906Z,85.50
2023-04-08T02:43:21.554Z,86.60
2023-04-08T02:51:29.727Z,86.70
2023-04-08T02:59:39.274Z,86.60
2023-04-08T03:07:47.347Z,85.60
2023-04-08T03:15:52.800Z,87.70
2023-04-08T03:24:01.071Z,87.20
2023-04-08T03:32:06.630Z,86.70
2023-04-08T03:40:16.165Z,86.70
2023-04-08T03:48:21.648Z,86.70
2023-04-08T03:56:29.831Z,87.00
2023-04-08T04:04:37.206Z,86.70
2023-04-08T04:12:45.269Z,87.00
2023-04-08T04:20:50.749Z,86.70
2023-04-08T04:28:58.836Z,86.50
2023-04-08T04:37:04.347Z,85.70
2023-04-08T04:45:13.645Z,86.00
2023-04-08T04:53:19.139Z,85.40
2023-04-08T05:01:27.323Z,84.70
2023-04-08T05:09:33.182Z,84.30
2023-04-08T05:17:41.569Z,83.80
2023-04-08T05:25:47.087Z,84.00
2023-04-08T05:33:55.201Z,84.30
2023-04-08T05:42:00.684Z,83.50
2023-04-08T05:50:10.085Z,84.30
2023-04-08T05:58:16.213Z,83.30
2023-04-08T06:06:25.658Z,81.10
2023-04-08T06:14:31.155Z,79.80
2023-04-08T06:22:39.281Z,79.50
2023-04-08T06:30:44.740Z,77.80
2023-04-08T06:38:52.826Z,79.00
2023-04-08T06:46:58.351Z,79.00
2023-04-08T06:55:06.531Z,79.00
2023-04-08T07:03:12.397Z,78.90
2023-04-08T07:11:21.367Z,78.50
2023-04-08T07:19:27.301Z,79.90
2023-04-08T07:27:36.847Z,78.30
2023-04-08T07:35:42.708Z,74.90
2023-04-08T07:43:50.901Z,74.20
2023-04-08T07:51:56.340Z,74.40
2023-04-08T08:00:05.104Z,72.20
2023-04-08T08:08:18.648Z,71.00
2023-04-08T08:16:27.761Z,67.40
2023-04-08T08:24:33.211Z,70.20
2023-04-08T08:32:41.360Z,73.90
2023-04-08T08:40:47.032Z,71.20
2023-04-08T08:48:55.172Z,73.30
2023-04-08T08:57:00.762Z,74.40
2023-04-08T09:05:09.566Z,71.90
2023-04-08T09:13:15.215Z,72.80
2023-04-08T09:21:27.651Z,71.80
2023-04-08T09:29:36.443Z,69.60
2023-04-08T09:37:46.775Z,69.70
2023-04-08T09:45:53.495Z,69.30
2023-04-08T09:54:06.640Z,73.10
2023-04-08T10:02:14.763Z,69.80
2023-04-08T10:10:23.251Z,67.70
2023-04-08T10:18:36.901Z,65.90
2023-04-08T10:26:45.582Z,65.10
2023-04-08T10:34:58.258Z,63.40
2023-04-08T10:43:06.686Z,61.40
2023-04-08T10:51:12.369Z,64.10
2023-04-08T10:59:32.275Z,67.30
2023-04-08T11:07:44.539Z,61.80
2023-04-08T11:15:53.678Z,58.70
2023-04-08T11:23:59.419Z,49.80
2023-04-08T11:32:09.249Z,46.40
2023-04-08T11:40:16.398Z,41.60
2023-04-08T11:48:24.459Z,42.40
2023-04-08T11:56:30.821Z,43.20
2023-04-08T12:04:39.574Z,44.80
2023-04-08T12:12:45.303Z,48.10
2023-04-08T12:20:53.466Z,53.40
2023-04-08T12:28:58.993Z,56.70
2023-04-08T12:37:07.072Z,56.40
2023-04-08T12:45:12.844Z,58.80
2023-04-08T12:53:20.972Z,59.60
2023-04-08T13:01:26.563Z,60.90
2023-04-08T13:09:35.183Z,58.90
2023-04-08T13:17:40.762Z,58.40
2023-04-08T13:25:48.957Z,63.80
2023-04-08T13:33:57.642Z,66.70
2023-04-08T13:42:06.176Z,64.90
2023-04-08T13:50:13.420Z,64.40
2023-04-08T13:58:24.240Z,69.00
2023-04-08T14:06:30.194Z,70.30
2023-04-08T14:14:38.215Z,74.20
2023-04-08T14:22:43.705Z,71.00
2023-04-08T14:30:53.107Z,70.30
2023-04-08T14:38:58.956Z,73.70
2023-04-08T14:47:07.061Z,71.90
2023-04-08T14:55:13.165Z,74.80
2023-04-08T15:03:23.044Z,71.80
2023-04-08T15:11:34.631Z,72.80
2023-04-08T15:19:42.799Z,71.80
2023-04-08T15:27:49.028Z,71.80
2023-04-08T15:35:57.666Z,75.00
2023-04-08T15:44:04.144Z,73.60
2023-04-08T15:52:12.561Z,72.60
2023-04-08T16:00:18.849Z,72.20
2023-04-08T16:08:27.337Z,73.60
2023-04-08T16:16:33.477Z,73.20
2023-04-08T16:24:53.729Z,76.60
2023-04-08T16:32:59.227Z,74.70
2023-04-08T16:41:10.317Z,74.60
2023-04-08T16:49:18.147Z,74.90
2023-04-08T16:57:26.639Z,74.20
2023-04-08T17:05:32.209Z,74.90
2023-04-08T17:13:40.832Z,75.40
2023-04-08T17:21:46.534Z,76.20
2023-04-08T17:29:57.874Z,76.40
2023-04-08T17:38:03.523Z,76.90
2023-04-08T17:46:12.218Z,76.80
2023-04-08T17:54:17.980Z,77.00
2023-04-08T18:02:27.803Z,77.00
2023-04-08T18:10:33.461Z,77.60
2023-04-08T18:18:42.903Z,77.80
2023-04-08T18:26:54.263Z,78.30
2023-04-08T18:35:06.242Z,77.50
2023-04-08T18:43:12.279Z,77.40
2023-04-08T18:51:20.394Z,78.20
2023-04-08T18:59:28.039Z,77.20
2023-04-08T19:07:36.075Z,77.30
2023-04-08T19:15:41.607Z,77.90
2023-04-08T19:23:50.074Z,78.30
2023-04-08T19:31:57.230Z,81.00
2023-04-08T19:40:05.258Z,79.70
2023-04-08T19:48:10.692Z,79.60
2023-04-08T19:56:18.725Z,79.40
2023-04-08T20:04:24.288Z,79.30
2023-04-08T20:12:33.244Z,78.80
2023-04-08T20:20:38.737Z,78.80
2023-04-08T20:28:48.343Z,78.70
2023-04-08T20:36:54.040Z,78.70
2023-04-08T20:45:02.100Z,78.10
2023-04-08T20:53:07.604Z,78.70
2023-04-08T21:01:16.085Z,79.40
2023-04-08T21:09:21.616Z,79.30
2023-04-08T21:17:31.448Z,79.90
2023-04-08T21:25:36.955Z,79.70
2023-04-08T21:33:45.070Z,79.40
2023-04-08T21:41:50.527Z,79.50
2023-04-08T21:49:58.875Z,79.20
2023-04-08T21:58:04.329Z,79.10
2023-04-08T22:06:19.328Z,78.80
2023-04-08T22:14:35.134Z,78.60
2023-04-08T22:22:43.115Z,79.10
2023-04-08T22:30:48.692Z,79.00
2023-04-08T22:38:57.042Z,79.50
2023-04-08T22:47:02.549Z,79.20
2023-04-08T22:55:11.590Z,79.30
2023-04-08T23:03:17.082Z,79.40
2023-04-08T23:11:25.175Z,79.50
2023-04-08T23:19:30.672Z,79.10
2023-04-08T23:27:38.951Z,79.50
2023-04-08T23:35:45.102Z,79.70
2023-04-08T23:43:53.276Z,79.60
2023-04-08T23:51:58.880Z,79.50
